createdAt,value
2022-12-08T00:00:46.851Z,22.37
2022-12-08T00:03:32.267Z,22.03
2022-12-08T00:06:36.982Z,23.40
2022-12-08T00:09:32.035Z,22.33
2022-12-08T00:12:19.565Z,23.13
2022-12-08T00:15:05.250Z,22.43
2022-12-08T00:17:50.862Z,23.70
2022-12-08T00:20:36.259Z,21.53
2022-12-08T00:23:21.618Z,23.97
2022-12-08T00:26:07.066Z,24.03
2022-12-08T00:28:52.033Z,25.67
2022-12-08T00:31:37.540Z,24.47
2022-12-08T00:34:22.932Z,25.57
2022-12-08T00:37:08.172Z,26.63
2022-12-08T00:39:53.037Z,24.63
2022-12-08T00:42:38.034Z,26.70
2022-12-08T00:45:23.522Z,26.80
2022-12-08T00:48:08.468Z,27.03
2022-12-08T00:50:53.368Z,27.00
2022-12-08T00:53:38.327Z,27.33
2022-12-08T00:56:24.387Z,25.93
2022-12-08T00:59:10.138Z,27.10
2022-12-08T01:01:55.810Z,26.90
2022-12-08T01:04:40.622Z,25.47
2022-12-08T01:07:26.042Z,25.20
2022-12-08T01:10:11.443Z,25.80
2022-12-08T01:12:58.448Z,25.17
2022-12-08T01:15:44.002Z,25.20
2022-12-08T01:18:29.551Z,24.23
2022-12-08T01:21:14.662Z,23.63
2022-12-08T01:24:01.074Z,23.43
2022-12-08T01:26:47.495Z,23.90
2022-12-08T01:29:32.744Z,25.00
2022-12-08T01:32:18.024Z,24.60
2022-12-08T01:35:03.302Z,24.30
2022-12-08T01:37:50.204Z,24.00
2022-12-08T01:40:36.377Z,24.73
2022-12-08T01:43:22.224Z,23.93
2022-12-08T01:46:07.337Z,25.00
2022-12-08T01:49:02.515Z,26.00
2022-12-08T01:52:02.631Z,26.10
2022-12-08T01:54:53.134Z,25.27
2022-12-08T01:57:44.981Z,25.40
2022-12-08T02:00:30.197Z,25.73
2022-12-08T02:03:31.856Z,25.50
2022-12-08T02:06:18.778Z,25.00
2022-12-08T02:09:05.936Z,25.03
2022-12-08T02:11:51.389Z,25.27
2022-12-08T02:14:36.890Z,24.30
2022-12-08T02:17:47.856Z,26.20
2022-12-08T02:20:49.063Z,25.83
2022-12-08T02:23:46.000Z,27.07
2022-12-08T02:26:40.076Z,27.37
2022-12-08T02:29:28.560Z,27.10
2022-12-08T02:32:51.003Z,27.77
2022-12-08T02:35:35.971Z,29.23
2022-12-08T02:38:33.666Z,29.10
2022-12-08T02:41:29.907Z,29.70
2022-12-08T02:44:44.141Z,31.77
2022-12-08T02:47:31.793Z,33.13
2022-12-08T02:50:16.800Z,32.43
2022-12-08T02:53:02.094Z,32.00
2022-12-08T02:56:28.716Z,35.50
2022-12-08T02:59:33.719Z,35.37
2022-12-08T03:02:32.182Z,32.60
2022-12-08T03:05:35.485Z,33.43
2022-12-08T03:08:43.298Z,33.47
2022-12-08T03:11:41.633Z,34.50
2022-12-08T03:14:29.173Z,34.50
2022-12-08T03:17:16.828Z,35.13
2022-12-08T03:20:07.495Z,35.40
2022-12-08T03:22:55.559Z,35.20
2022-12-08T03:25:51.849Z,36.40
2022-12-08T03:28:37.968Z,36.50
2022-12-08T03:31:35.484Z,33.30
2022-12-08T03:34:23.757Z,35.73
2022-12-08T03:37:08.950Z,35.70
2022-12-08T03:39:53.864Z,35.73
2022-12-08T03:42:39.143Z,37.03
2022-12-08T03:45:24.694Z,36.77
2022-12-08T03:48:09.852Z,35.13
2022-12-08T03:50:54.756Z,35.30
2022-12-08T03:53:39.855Z,36.10
2022-12-08T03:56:37.172Z,32.17
2022-12-08T03:59:22.220Z,34.83
2022-12-08T04:02:07.696Z,35.87
2022-12-08T04:04:52.954Z,34.60
2022-12-08T04:07:38.547Z,34.60
2022-12-08T04:10:23.785Z,34.97
2022-12-08T04:13:09.130Z,32.33
2022-12-08T04:15:54.392Z,33.93
2022-12-08T04:18:39.463Z,34.97
2022-12-08T04:21:24.832Z,33.17
2022-12-08T04:24:10.223Z,37.07
2022-12-08T04:26:55.632Z,33.87
2022-12-08T04:29:41.203Z,39.50
2022-12-08T04:32:26.546Z,37.93
2022-12-08T04:35:11.472Z,38.30
2022-12-08T04:37:56.558Z,38.90
2022-12-08T04:40:41.864Z,41.73
2022-12-08T04:43:26.993Z,39.77
2022-12-08T04:46:12.016Z,40.00
2022-12-08T04:48:57.259Z,39.33
2022-12-08T04:51:42.224Z,38.97
2022-12-08T04:54:27.238Z,39.80
2022-12-08T04:57:13.509Z,36.90
2022-12-08T04:59:58.663Z,38.33
2022-12-08T05:02:43.720Z,36.57
2022-12-08T05:05:29.116Z,35.93
2022-12-08T05:08:14.056Z,35.50
2022-12-08T05:11:05.113Z,36.23
2022-12-08T05:13:50.162Z,38.03
2022-12-08T05:16:36.662Z,39.37
2022-12-08T05:19:21.518Z,39.47
2022-12-08T05:22:07.070Z,38.83
2022-12-08T05:24:52.302Z,39.90
2022-12-08T05:27:40.616Z,42.83
2022-12-08T05:30:25.550Z,39.77
2022-12-08T05:33:10.407Z,38.90
2022-12-08T05:35:55.472Z,42.20
2022-12-08T05:38:41.091Z,41.60
2022-12-08T05:41:26.471Z,38.27
2022-12-08T05:44:11.865Z,37.13
2022-12-08T05:46:57.914Z,40.97
2022-12-08T05:49:43.237Z,39.13
2022-12-08T05:52:28.339Z,42.50
2022-12-08T05:55:13.988Z,43.23
2022-12-08T05:58:03.075Z,43.30
2022-12-08T06:00:51.924Z,44.83
2022-12-08T06:03:37.201Z,46.97
2022-12-08T06:06:22.668Z,43.23
2022-12-08T06:09:07.871Z,46.47
2022-12-08T06:11:53.409Z,45.80
2022-12-08T06:14:39.799Z,47.27
2022-12-08T06:17:24.900Z,48.47
2022-12-08T06:20:10.472Z,47.33
2022-12-08T06:22:55.586Z,39.37
2022-12-08T06:25:41.037Z,45.93
2022-12-08T06:28:26.364Z,45.07
2022-12-08T06:31:18.643Z,41.90
2022-12-08T06:34:04.294Z,44.90
2022-12-08T06:36:49.403Z,43.60
2022-12-08T06:39:34.725Z,43.87
2022-12-08T06:42:20.057Z,39.63
2022-12-08T06:45:05.596Z,41.57
2022-12-08T06:47:50.644Z,41.37
2022-12-08T06:50:35.621Z,41.67
2022-12-08T06:53:20.588Z,42.43
2022-12-08T06:56:06.650Z,39.30
2022-12-08T06:58:52.967Z,38.33
2022-12-08T07:01:38.452Z,41.67
2022-12-08T07:04:24.094Z,43.80
2022-12-08T07:07:11.477Z,39.37
2022-12-08T07:09:57.093Z,40.10
2022-12-08T07:12:44.267Z,41.67
2022-12-08T07:15:29.308Z,40.10
2022-12-08T07:18:14.670Z,39.50
2022-12-08T07:21:08.005Z,39.07
2022-12-08T07:23:57.545Z,38.73
2022-12-08T07:26:43.635Z,39.43
2022-12-08T07:29:29.032Z,36.47
2022-12-08T07:32:13.960Z,35.87
2022-12-08T07:34:59.151Z,35.97
2022-12-08T07:37:44.754Z,31.30
2022-12-08T07:40:30.036Z,34.60
2022-12-08T07:43:15.283Z,31.27
2022-12-08T07:46:00.176Z,32.67
2022-12-08T07:48:45.920Z,33.30
2022-12-08T07:51:31.294Z,51.17
2022-12-08T07:54:16.298Z,28.13
2022-12-08T07:57:01.686Z,27.83
2022-12-08T07:59:46.877Z,26.73
2022-12-08T08:02:32.356Z,27.27
2022-12-08T08:05:17.752Z,27.70
2022-12-08T08:08:03.260Z,26.33
2022-12-08T08:10:50.694Z,27.83
2022-12-08T08:13:36.061Z,27.37
2022-12-08T08:16:21.415Z,28.07
2022-12-08T08:19:06.880Z,28.40
2022-12-08T08:21:51.988Z,28.50
2022-12-08T08:24:43.127Z,30.33
2022-12-08T08:27:30.204Z,30.00
2022-12-08T08:30:20.408Z,27.93
2022-12-08T08:33:06.171Z,29.07
2022-12-08T08:35:51.805Z,27.40
2022-12-08T08:38:37.603Z,28.03
2022-12-08T08:41:22.881Z,28.43
2022-12-08T08:44:08.474Z,28.87
2022-12-08T08:46:53.887Z,26.53
2022-12-08T08:49:39.293Z,28.13
2022-12-08T08:52:24.610Z,25.80
2022-12-08T08:55:10.360Z,26.80
2022-12-08T08:57:55.702Z,26.73
2022-12-08T09:00:41.079Z,26.53
2022-12-08T09:03:26.130Z,25.53
2022-12-08T09:06:11.852Z,26.53
2022-12-08T09:08:57.122Z,24.13
2022-12-08T09:11:42.903Z,24.77
2022-12-08T09:14:27.865Z,25.17
2022-12-08T09:17:13.369Z,23.27
2022-12-08T09:19:58.581Z,23.10
2022-12-08T09:22:44.063Z,23.13
2022-12-08T09:25:29.553Z,21.03
2022-12-08T09:28:15.302Z,20.57
2022-12-08T09:31:00.924Z,20.37
2022-12-08T09:33:46.361Z,22.60
2022-12-08T09:36:32.050Z,21.63
2022-12-08T09:39:17.420Z,21.50
2022-12-08T09:42:05.649Z,22.37
2022-12-08T09:44:54.851Z,23.63
2022-12-08T09:47:42.146Z,22.63
2022-12-08T09:50:43.672Z,19.10
2022-12-08T09:53:35.896Z,18.73
2022-12-08T09:56:25.620Z,18.10
2022-12-08T09:59:24.741Z,17.90
2022-12-08T10:02:24.901Z,42.07
2022-12-08T10:05:14.019Z,16.47
2022-12-08T10:08:16.131Z,16.07
2022-12-08T10:11:14.038Z,14.53
2022-12-08T10:14:29.095Z,15.40
2022-12-08T10:17:33.491Z,15.03
2022-12-08T10:20:22.468Z,14.53
2022-12-08T10:23:33.536Z,13.80
2022-12-08T10:26:20.666Z,14.50
2022-12-08T10:29:05.954Z,12.70
2022-12-08T10:31:52.447Z,12.97
2022-12-08T10:34:59.222Z,12.23
2022-12-08T10:37:58.796Z,12.40
2022-12-08T10:40:45.881Z,11.03
2022-12-08T10:43:32.829Z,11.43
2022-12-08T10:46:22.975Z,11.50
2022-12-08T10:49:08.152Z,11.47
2022-12-08T10:51:53.200Z,11.27
2022-12-08T10:54:42.585Z,10.67
2022-12-08T10:57:28.156Z,12.00
2022-12-08T11:00:34.862Z,13.40
2022-12-08T11:03:34.347Z,14.23
2022-12-08T11:06:30.790Z,14.10
2022-12-08T11:09:16.179Z,12.50
2022-12-08T11:12:24.710Z,13.07
2022-12-08T11:15:16.057Z,12.57
2022-12-08T11:18:08.295Z,12.47
2022-12-08T11:21:13.686Z,11.50
2022-12-08T11:23:58.927Z,11.77
2022-12-08T11:26:50.750Z,10.97
2022-12-08T11:29:36.206Z,10.77
2022-12-08T11:32:21.373Z,11.27
2022-12-08T11:35:23.697Z,10.07
2022-12-08T11:38:21.575Z,10.27
2022-12-08T11:41:15.844Z,10.63
2022-12-08T11:44:01.894Z,10.00
2022-12-08T11:46:56.078Z,10.20
2022-12-08T11:49:42.665Z,10.97
2022-12-08T11:52:32.652Z,11.23
2022-12-08T11:55:20.554Z,10.47
2022-12-08T11:58:20.320Z,9.50
2022-12-08T12:01:06.209Z,10.20
2022-12-08T12:04:14.293Z,10.00
2022-12-08T12:07:05.265Z,9.40
2022-12-08T12:10:28.361Z,9.10
2022-12-08T12:13:32.350Z,9.50
2022-12-08T12:16:21.955Z,8.73
2022-12-08T12:19:17.888Z,8.97
2022-12-08T12:22:15.444Z,8.57
2022-12-08T12:25:02.371Z,8.70
2022-12-08T12:27:48.239Z,8.33
2022-12-08T12:31:05.648Z,8.33
2022-12-08T12:33:53.497Z,7.73
2022-12-08T12:37:03.581Z,8.23
2022-12-08T12:39:52.081Z,7.73
2022-12-08T12:42:46.044Z,7.70
2022-12-08T12:45:33.785Z,8.80
2022-12-08T12:48:25.316Z,8.87
2022-12-08T12:51:36.040Z,8.03
2022-12-08T12:54:28.687Z,7.43
2022-12-08T12:57:14.288Z,7.70
2022-12-08T12:59:59.818Z,6.20
2022-12-08T13:02:44.952Z,5.63
2022-12-08T13:05:35.891Z,6.73
2022-12-08T13:08:26.218Z,6.83
2022-12-08T13:11:12.589Z,6.50
2022-12-08T13:13:59.510Z,6.53
2022-12-08T13:16:45.280Z,6.00
2022-12-08T13:19:32.464Z,6.23
2022-12-08T13:22:54.971Z,6.17
2022-12-08T13:25:40.446Z,5.50
2022-12-08T13:28:28.888Z,5.77
2022-12-08T13:31:49.836Z,6.00
2022-12-08T13:34:50.357Z,6.23
2022-12-08T13:37:54.494Z,6.03
2022-12-08T13:40:42.371Z,5.57
2022-12-08T13:44:20.049Z,6.70
2022-12-08T13:47:31.639Z,6.97
2022-12-08T13:54:09.861Z,9.40
2022-12-08T13:59:47.663Z,10.17
2022-12-08T14:02:47.766Z,9.77
2022-12-08T14:06:11.107Z,9.47
2022-12-08T14:09:06.916Z,9.40
2022-12-08T14:11:59.277Z,9.10
2022-12-08T14:15:03.210Z,9.50
2022-12-08T14:17:57.060Z,9.10
2022-12-08T14:21:12.632Z,7.57
2022-12-08T14:23:47.180Z,7.37
2022-12-08T14:26:34.425Z,8.03
2022-12-08T14:29:37.065Z,7.80
2022-12-08T14:32:33.385Z,8.03
2022-12-08T14:35:18.815Z,8.17
2022-12-08T14:38:15.616Z,8.87
2022-12-08T14:41:07.108Z,7.87
2022-12-08T14:44:00.450Z,9.10
2022-12-08T14:47:06.812Z,8.27
2022-12-08T14:49:55.090Z,9.03
2022-12-08T14:52:44.405Z,9.13
2022-12-08T14:55:39.673Z,9.63
2022-12-08T14:58:30.285Z,8.73
2022-12-08T15:01:21.036Z,11.00
2022-12-08T15:04:18.511Z,11.20
2022-12-08T15:07:13.535Z,10.73
2022-12-08T15:10:17.158Z,12.97
2022-12-08T15:13:11.302Z,10.27
2022-12-08T15:15:58.062Z,10.20
2022-12-08T15:18:43.534Z,9.40
2022-12-08T15:21:33.187Z,10.23
2022-12-08T15:24:26.020Z,10.10
2022-12-08T15:27:18.200Z,12.47
2022-12-08T15:30:04.172Z,10.20
2022-12-08T15:32:49.277Z,10.27
2022-12-08T15:35:40.570Z,10.83
2022-12-08T15:38:28.860Z,10.37
2022-12-08T15:41:15.302Z,10.37
2022-12-08T15:44:00.576Z,10.83
2022-12-08T15:46:45.718Z,10.47
2022-12-08T15:49:31.261Z,11.37
2022-12-08T15:52:22.397Z,10.90
2022-12-08T15:55:12.156Z,11.77
2022-12-08T15:58:51.929Z,12.10
2022-12-08T16:01:02.697Z,12.23
2022-12-08T16:09:59.029Z,13.07
2022-12-08T16:13:48.141Z,12.77
2022-12-08T16:15:59.781Z,13.10
2022-12-08T16:18:48.312Z,12.93
2022-12-08T16:22:04.813Z,15.20
2022-12-08T16:24:38.670Z,15.87
2022-12-08T16:27:59.943Z,19.07
2022-12-08T16:30:34.510Z,20.77
2022-12-08T16:33:19.470Z,21.67
2022-12-08T16:36:04.370Z,21.93
2022-12-08T16:38:49.493Z,23.90
2022-12-08T16:41:34.421Z,24.53
2022-12-08T16:44:20.525Z,25.27
2022-12-08T16:47:10.149Z,26.20
2022-12-08T16:49:55.546Z,27.07
2022-12-08T16:52:41.376Z,28.83
2022-12-08T16:55:26.779Z,30.30
2022-12-08T16:58:12.010Z,31.90
2022-12-08T17:00:58.666Z,33.63
2022-12-08T17:04:01.043Z,33.50
2022-12-08T17:06:50.011Z,34.23
2022-12-08T17:09:36.285Z,34.30
2022-12-08T17:12:21.419Z,34.40
2022-12-08T17:15:10.004Z,33.77
2022-12-08T17:17:55.328Z,35.87
2022-12-08T17:20:40.368Z,35.33
2022-12-08T17:23:25.797Z,38.00
2022-12-08T17:26:11.694Z,38.00
2022-12-08T17:29:01.449Z,35.70
2022-12-08T17:31:47.326Z,36.50
2022-12-08T17:34:32.759Z,36.83
2022-12-08T17:37:18.329Z,37.87
2022-12-08T17:40:04.677Z,36.60
2022-12-08T17:42:51.324Z,39.10
2022-12-08T17:45:44.084Z,38.10
2022-12-08T17:48:28.980Z,37.87
2022-12-08T17:51:14.815Z,39.00
2022-12-08T17:54:00.074Z,36.67
2022-12-08T17:56:45.568Z,37.13
2022-12-08T17:59:32.405Z,37.00
2022-12-08T18:02:17.659Z,36.10
2022-12-08T18:05:02.507Z,35.43
2022-12-08T18:07:47.429Z,36.40
2022-12-08T18:10:32.851Z,34.40
2022-12-08T18:13:18.178Z,35.17
2022-12-08T18:16:03.946Z,35.87
2022-12-08T18:18:49.230Z,36.07
2022-12-08T18:21:35.756Z,37.27
2022-12-08T18:24:23.461Z,36.90
2022-12-08T18:27:08.750Z,36.37
2022-12-08T18:29:53.940Z,38.27
2022-12-08T18:32:39.048Z,44.10
2022-12-08T18:35:24.019Z,46.47
2022-12-08T18:38:09.122Z,38.77
2022-12-08T18:40:53.829Z,40.50
2022-12-08T18:43:38.871Z,37.87
2022-12-08T18:46:24.911Z,38.00
2022-12-08T18:49:15.599Z,36.43
2022-12-08T18:52:00.729Z,39.73
2022-12-08T18:57:51.141Z,37.47
2022-12-08T19:00:36.374Z,38.10
2022-12-08T19:03:21.454Z,40.13
2022-12-08T19:06:07.077Z,39.33
2022-12-08T19:08:52.455Z,38.97
2022-12-08T19:11:38.338Z,39.03
2022-12-08T19:14:28.510Z,39.73
2022-12-08T19:17:14.054Z,40.93
2022-12-08T19:19:59.474Z,43.37
2022-12-08T19:22:44.719Z,42.37
2022-12-08T19:25:30.152Z,42.40
2022-12-08T19:28:15.599Z,40.63
2022-12-08T19:31:06.177Z,39.20
2022-12-08T19:33:52.159Z,38.93
2022-12-08T19:36:37.317Z,41.10
2022-12-08T19:39:24.112Z,40.53
2022-12-08T19:42:17.516Z,41.97
2022-12-08T19:45:13.659Z,43.40
2022-12-08T19:47:59.307Z,42.10
2022-12-08T19:50:44.240Z,44.07
2022-12-08T19:53:29.402Z,44.77
2022-12-08T19:56:14.814Z,44.03
2022-12-08T19:59:02.861Z,48.20
2022-12-08T20:01:48.304Z,47.27
2022-12-08T20:04:33.729Z,46.10
2022-12-08T20:07:19.024Z,45.33
2022-12-08T20:10:12.247Z,45.00
2022-12-08T20:12:57.618Z,46.40
2022-12-08T20:15:45.252Z,47.07
2022-12-08T20:18:30.370Z,46.27
2022-12-08T20:21:16.062Z,45.90
2022-12-08T20:24:01.254Z,45.23
2022-12-08T20:26:46.487Z,46.30
2022-12-08T20:29:32.211Z,47.00
2022-12-08T20:32:17.432Z,47.50
2022-12-08T20:35:05.851Z,47.43
2022-12-08T20:37:51.308Z,48.67
2022-12-08T20:40:36.798Z,48.17
2022-12-08T20:43:22.430Z,45.90
2022-12-08T20:46:09.996Z,46.00
2022-12-08T20:48:56.154Z,46.50
2022-12-08T20:51:42.169Z,46.80
2022-12-08T20:54:27.465Z,45.80
2022-12-08T20:57:12.901Z,46.47
2022-12-08T20:59:57.865Z,43.27
2022-12-08T21:02:49.734Z,44.70
2022-12-08T21:05:39.399Z,44.17
2022-12-08T21:08:27.281Z,45.93
2022-12-08T21:11:13.133Z,41.40
2022-12-08T21:13:57.992Z,41.77
2022-12-08T21:16:43.465Z,41.83
2022-12-08T21:19:29.248Z,42.70
2022-12-08T21:22:15.502Z,42.10
2022-12-08T21:25:01.317Z,43.13
2022-12-08T21:27:46.500Z,43.77
2022-12-08T21:30:31.545Z,45.30
2022-12-08T21:33:16.929Z,45.13
2022-12-08T21:36:14.710Z,44.57
2022-12-08T21:39:00.020Z,42.80
2022-12-08T21:41:45.280Z,44.03
2022-12-08T21:44:32.083Z,43.20
2022-12-08T21:47:17.307Z,39.13
2022-12-08T21:50:03.882Z,41.27
2022-12-08T21:52:49.672Z,38.57
2022-12-08T21:55:34.933Z,38.13
2022-12-08T21:58:20.121Z,39.73
2022-12-08T22:01:10.840Z,39.77
2022-12-08T22:03:55.933Z,39.23
2022-12-08T22:06:41.280Z,39.13
2022-12-08T22:09:26.720Z,37.77
2022-12-08T22:12:12.246Z,38.27
2022-12-08T22:14:57.585Z,41.20
2022-12-08T22:17:43.974Z,41.93
2022-12-08T22:20:29.179Z,40.20
2022-12-08T22:23:14.606Z,39.47
2022-12-08T22:26:01.714Z,40.47
2022-12-08T22:28:47.220Z,42.00
2022-12-08T22:31:34.388Z,37.77
2022-12-08T22:34:20.091Z,36.73
2022-12-08T22:37:05.249Z,31.80
2022-12-08T22:39:51.321Z,35.90
2022-12-08T22:42:37.472Z,34.77
2022-12-08T22:45:22.838Z,33.27
2022-12-08T22:48:10.468Z,34.47
2022-12-08T22:51:02.082Z,31.27
2022-12-08T22:53:49.721Z,31.73
2022-12-08T22:56:39.896Z,32.40
2022-12-08T22:59:25.368Z,34.73
2022-12-08T23:02:12.583Z,34.43
2022-12-08T23:04:57.921Z,35.03
2022-12-08T23:07:43.706Z,34.60
2022-12-08T23:10:30.395Z,35.00
2022-12-08T23:13:17.095Z,34.80
2022-12-08T23:16:05.683Z,35.90
2022-12-08T23:18:51.894Z,36.17
2022-12-08T23:21:36.855Z,36.47
2022-12-08T23:24:22.304Z,36.87
2022-12-08T23:27:07.800Z,35.27
2022-12-08T23:29:52.916Z,36.67
2022-12-08T23:32:38.502Z,36.57
2022-12-08T23:35:23.731Z,35.77
2022-12-08T23:38:09.029Z,37.67
2022-12-08T23:40:54.504Z,34.97
2022-12-08T23:43:48.416Z,35.13
2022-12-08T23:46:33.681Z,34.03
2022-12-08T23:49:18.858Z,32.80
2022-12-08T23:52:04.448Z,32.90
2022-12-08T23:54:50.458Z,32.50
2022-12-08T23:57:36.261Z,34.17
